Time;durP1;ratioP1;P1;durP2;ratioP2;P2;SDS_P1;SDS_P2;PMS_P1;PMS_P2;Temp;Humidity;BMP_temperature;BMP_pressure;BME280_temperature;BME280_humidity;BME280_pressure;Samples;Min_cycle;Max_cycle;Signal;HPM_P1;HPM_P2
2021/12/15 00:00:19;;;;;;;11.30;9.40;;;;;;;;;;5088238;28;20255;-83
2021/12/15 00:02:46;;;;;;;11.98;9.30;;;;;;;;;;5087327;28;20437;-83
2021/12/15 00:05:20;;;;;;;13.63;8.35;;;;;;;;;;5089399;28;20191;-84
2021/12/15 00:07:46;;;;;;;11.98;9.18;;;;;;;;;;5089662;28;20212;-85
2021/12/15 00:10:13;;;;;;;10.65;9.35;;;;;;;;;;5088302;28;20199;-83
2021/12/15 00:12:39;;;;;;;13.05;10.35;;;;;;;;;;5089183;28;20265;-83
2021/12/15 00:15:05;;;;;;;11.43;8.80;;;;;;;;;;5087175;28;20180;-85
2021/12/15 00:17:31;;;;;;;15.48;10.00;;;;;;;;;;5086722;28;20307;-83
2021/12/15 00:19:57;;;;;;;16.23;10.55;;;;;;;;;;5088013;28;20199;-81
2021/12/15 00:22:23;;;;;;;15.15;11.18;;;;;;;;;;5088445;28;20637;-82
2021/12/15 00:24:50;;;;;;;11.32;9.38;;;;;;;;;;5088002;28;20185;-82
2021/12/15 00:27:16;;;;;;;10.02;8.15;;;;;;;;;;5088386;28;20222;-81
2021/12/15 00:29:42;;;;;;;11.32;8.60;;;;;;;;;;5076419;28;20181;-82
2021/12/15 00:32:08;;;;;;;11.23;8.00;;;;;;;;;;5073980;28;20196;-82
2021/12/15 00:34:37;;;;;;;10.38;7.18;;;;;;;;;;5075983;28;20211;-85
2021/12/15 00:37:04;;;;;;;8.75;6.40;;;;;;;;;;5077998;28;20219;-85
2021/12/15 00:39:30;;;;;;;7.90;6.72;;;;;;;;;;5076894;28;20271;-85
2021/12/15 00:41:56;;;;;;;9.43;6.13;;;;;;;;;;5079241;28;20192;-84
2021/12/15 00:44:23;;;;;;;8.90;5.55;;;;;;;;;;5079040;28;20183;-85
2021/12/15 00:46:52;;;;;;;9.68;5.55;;;;;;;;;;5078533;28;20259;-85
2021/12/15 00:49:18;;;;;;;9.45;5.70;;;;;;;;;;5078166;28;20256;-85
2021/12/15 00:51:44;;;;;;;6.22;5.53;;;;;;;;;;5080171;28;20716;-84
2021/12/15 00:54:17;;;;;;;7.82;5.40;;;;;;;;;;5082351;28;20620;-84
2021/12/15 00:56:43;;;;;;;4.22;3.83;;;;;;;;;;5081340;28;20201;-84
2021/12/15 00:59:11;;;;;;;6.35;4.13;;;;;;;;;;5064933;28;20664;-84
2021/12/15 01:01:37;;;;;;;6.90;4.78;;;;;;;;;;5079126;28;20195;-85
2021/12/15 01:04:04;;;;;;;9.82;5.13;;;;;;;;;;5077139;28;20195;-84
2021/12/15 01:06:30;;;;;;;4.32;3.50;;;;;;;;;;5077936;28;20197;-85
2021/12/15 01:09:00;;;;;;;6.05;4.30;;;;;;;;;;5078435;28;20169;-84
2021/12/15 01:11:43;;;;;;;5.95;2.92;;;;;;;;;;5077428;28;20260;-84
2021/12/15 01:19:52;;;;;;;4.50;3.38;;;;;;;;;;5077517;28;20175;-85
2021/12/15 01:22:28;;;;;;;4.68;3.50;;;;;;;;;;5076493;28;20190;-84
2021/12/15 01:25:04;;;;;;;3.90;3.10;;;;;;;;;;5077601;28;20173;-84
2021/12/15 01:27:30;;;;;;;3.55;3.25;;;;;;;;;;5076308;28;20177;-85
2021/12/15 01:29:56;;;;;;;4.47;3.05;;;;;;;;;;5077999;28;20212;-85
2021/12/15 01:32:22;;;;;;;3.28;3.00;;;;;;;;;;5077687;28;20196;-84
2021/12/15 01:34:48;;;;;;;4.30;2.90;;;;;;;;;;5077650;28;20602;-85
2021/12/15 01:37:14;;;;;;;4.13;3.38;;;;;;;;;;5076022;28;20563;-84
2021/12/15 01:39:40;;;;;;;3.90;3.50;;;;;;;;;;5075756;28;20523;-84
2021/12/15 01:42:07;;;;;;;4.30;3.40;;;;;;;;;;5077526;28;20688;-85
2021/12/15 01:47:18;;;;;;;4.82;3.60;;;;;;;;;;5077375;28;20545;-85
2021/12/15 01:49:51;;;;;;;5.00;3.78;;;;;;;;;;5077684;28;20173;-86
2021/12/15 01:52:20;;;;;;;3.97;3.67;;;;;;;;;;5078153;28;20318;-83
2021/12/15 01:54:48;;;;;;;8.38;2.60;;;;;;;;;;5077519;28;20180;-84
2021/12/15 01:57:14;;;;;;;3.50;3.10;;;;;;;;;;5082316;28;20204;-84
2021/12/15 01:59:41;;;;;;;3.40;3.08;;;;;;;;;;5078186;28;20541;-84
2021/12/15 02:02:08;;;;;;;5.40;3.13;;;;;;;;;;5078514;28;20272;-83
2021/12/15 02:04:34;;;;;;;4.03;2.92;;;;;;;;;;5077794;28;20175;-84
2021/12/15 02:07:01;;;;;;;4.13;3.75;;;;;;;;;;5076098;28;20204;-84
2021/12/15 02:12:12;;;;;;;4.25;3.13;;;;;;;;;;5077652;28;20241;-84
2021/12/15 02:14:39;;;;;;;4.80;2.80;;;;;;;;;;5076869;28;20180;-84
2021/12/15 02:17:05;;;;;;;3.20;2.90;;;;;;;;;;5078120;28;20262;-84
2021/12/15 02:19:31;;;;;;;4.78;3.42;;;;;;;;;;5077775;28;20218;-85
2021/12/15 02:21:59;;;;;;;5.10;3.30;;;;;;;;;;5076108;28;20271;-83
2021/12/15 02:24:25;;;;;;;3.83;3.35;;;;;;;;;;5078026;28;20168;-84
2021/12/15 02:26:57;;;;;;;4.10;3.58;;;;;;;;;;5078497;28;20656;-84
2021/12/15 02:29:24;;;;;;;9.00;3.15;;;;;;;;;;5078062;28;20168;-84
2021/12/15 02:39:48;;;;;;;5.25;3.20;;;;;;;;;;5073053;28;20846;-83
2021/12/15 02:42:14;;;;;;;3.38;3.03;;;;;;;;;;5077054;28;20191;-84
2021/12/15 02:44:43;;;;;;;2.83;2.53;;;;;;;;;;5076959;28;20211;-85
2021/12/15 02:47:11;;;;;;;4.38;2.67;;;;;;;;;;5075235;28;20555;-84
2021/12/15 02:49:37;;;;;;;4.82;3.10;;;;;;;;;;5076546;28;20169;-85
2021/12/15 02:52:04;;;;;;;3.60;2.75;;;;;;;;;;5076283;28;20212;-85
2021/12/15 02:54:30;;;;;;;3.10;2.80;;;;;;;;;;5075507;28;20177;-85
2021/12/15 02:57:04;;;;;;;5.60;2.65;;;;;;;;;;5077487;28;20204;-84
2021/12/15 02:59:38;;;;;;;4.93;2.90;;;;;;;;;;5077823;28;20538;-85
2021/12/15 03:02:16;;;;;;;3.38;2.70;;;;;;;;;;5077558;28;20192;-84
2021/12/15 03:04:49;;;;;;;4.18;3.38;;;;;;;;;;5076756;28;20227;-85
2021/12/15 03:07:25;;;;;;;3.83;3.20;;;;;;;;;;5075952;28;20185;-84
2021/12/15 03:15:34;;;;;;;3.55;2.42;;;;;;;;;;5075076;28;20186;-84
2021/12/15 03:18:11;;;;;;;4.97;3.28;;;;;;;;;;5074555;28;20201;-84
2021/12/15 03:20:40;;;;;;;3.60;2.90;;;;;;;;;;5073988;28;20188;-84
2021/12/15 03:23:07;;;;;;;3.47;3.17;;;;;;;;;;5077050;28;20192;-84
2021/12/15 03:25:33;;;;;;;4.43;3.53;;;;;;;;;;5077166;28;20173;-84
2021/12/15 03:34:25;;;;;;;6.80;4.22;;;;;;;;;;5073828;28;20635;-84
2021/12/15 03:36:35;;;;;;;4.40;3.60;;;;;;;;;;5070145;28;20594;-85
2021/12/15 03:39:04;;;;;;;3.97;3.55;;;;;;;;;;5071867;28;20165;-84
2021/12/15 03:41:30;;;;;;;4.15;3.67;;;;;;;;;;5073097;28;20242;-85
2021/12/15 03:43:56;;;;;;;5.18;4.18;;;;;;;;;;5073263;28;20191;-84
2021/12/15 03:46:22;;;;;;;6.13;4.15;;;;;;;;;;5072083;28;20187;-85
2021/12/15 03:48:49;;;;;;;5.67;3.90;;;;;;;;;;5071887;28;20267;-85
2021/12/15 03:51:15;;;;;;;7.90;4.28;;;;;;;;;;5072997;28;20538;-84
2021/12/15 03:53:42;;;;;;;8.15;4.43;;;;;;;;;;5073472;28;20571;-84
2021/12/15 03:56:11;;;;;;;5.20;4.00;;;;;;;;;;5073265;28;20243;-84
2021/12/15 03:58:37;;;;;;;4.53;3.65;;;;;;;;;;5055723;28;20180;-83
2021/12/15 04:01:07;;;;;;;5.50;4.10;;;;;;;;;;5071293;28;20230;-84
2021/12/15 04:03:35;;;;;;;7.25;3.45;;;;;;;;;;5074601;28;20582;-86
2021/12/15 04:06:01;;;;;;;5.13;3.20;;;;;;;;;;5075490;28;20176;-85
2021/12/15 04:08:28;;;;;;;5.32;3.13;;;;;;;;;;5078987;28;20524;-85
2021/12/15 04:10:55;;;;;;;7.13;3.70;;;;;;;;;;5076380;28;20212;-85
2021/12/15 04:13:21;;;;;;;4.85;3.65;;;;;;;;;;5076903;28;20180;-84
2021/12/15 04:15:54;;;;;;;5.32;3.40;;;;;;;;;;5076509;28;20519;-85
2021/12/15 04:18:20;;;;;;;5.45;3.80;;;;;;;;;;5075226;28;20595;-83
2021/12/15 04:20:47;;;;;;;5.28;4.10;;;;;;;;;;5076306;28;20254;-85
2021/12/15 04:23:18;;;;;;;4.72;3.90;;;;;;;;;;5076310;28;20177;-85
2021/12/15 04:25:45;;;;;;;5.00;3.45;;;;;;;;;;5076231;28;20236;-84
2021/12/15 04:28:13;;;;;;;5.32;3.70;;;;;;;;;;5076356;28;20274;-84
2021/12/15 04:30:44;;;;;;;4.32;3.40;;;;;;;;;;5075637;28;20195;-85
2021/12/15 04:33:13;;;;;;;7.18;3.67;;;;;;;;;;5076004;28;20166;-83
2021/12/15 04:35:40;;;;;;;5.57;3.90;;;;;;;;;;5076006;28;20167;-82
2021/12/15 04:38:09;;;;;;;5.40;4.25;;;;;;;;;;5074667;28;20207;-82
2021/12/15 04:40:35;;;;;;;4.93;4.07;;;;;;;;;;5075874;28;20193;-85
2021/12/15 04:43:02;;;;;;;5.40;4.22;;;;;;;;;;5076307;28;20172;-86
2021/12/15 04:45:29;;;;;;;16.27;5.05;;;;;;;;;;5074756;28;20279;-83
2021/12/15 04:47:57;;;;;;;6.70;4.53;;;;;;;;;;5075811;28;20245;-84
2021/12/15 04:50:24;;;;;;;4.38;3.55;;;;;;;;;;5075496;28;20188;-84
2021/12/15 04:52:50;;;;;;;4.35;3.75;;;;;;;;;;5075775;28;20545;-84
2021/12/15 04:55:17;;;;;;;6.07;4.30;;;;;;;;;;5075791;28;20584;-86
2021/12/15 04:57:43;;;;;;;4.57;3.85;;;;;;;;;;5075609;28;20569;-84
2021/12/15 05:00:11;;;;;;;5.30;3.70;;;;;;;;;;5075523;28;20231;-85
2021/12/15 05:02:37;;;;;;;6.00;4.22;;;;;;;;;;5074404;28;20634;-85
2021/12/15 05:05:05;;;;;;;6.53;3.75;;;;;;;;;;5074407;28;20173;-85
2021/12/15 05:07:31;;;;;;;6.15;4.30;;;;;;;;;;5074506;28;20192;-85
2021/12/15 05:09:59;;;;;;;5.13;4.18;;;;;;;;;;5075462;28;20250;-84
2021/12/15 05:12:25;;;;;;;5.10;3.47;;;;;;;;;;5075636;28;20227;-84
2021/12/15 05:14:51;;;;;;;3.80;3.00;;;;;;;;;;5075339;28;20180;-84
2021/12/15 05:17:17;;;;;;;4.13;3.55;;;;;;;;;;5075277;28;20212;-86
2021/12/15 05:19:46;;;;;;;8.02;3.63;;;;;;;;;;5075104;28;20168;-84
2021/12/15 05:22:13;;;;;;;4.25;3.85;;;;;;;;;;5073959;28;20284;-84
2021/12/15 05:24:40;;;;;;;6.85;4.07;;;;;;;;;;5075167;28;20678;-85
2021/12/15 05:27:11;;;;;;;4.05;3.20;;;;;;;;;;5075297;28;20184;-84
2021/12/15 05:29:38;;;;;;;5.15;4.35;;;;;;;;;;5074946;28;20169;-84
2021/12/15 05:32:04;;;;;;;5.32;4.03;;;;;;;;;;5074989;28;20197;-83
2021/12/15 05:34:31;;;;;;;6.50;3.85;;;;;;;;;;5075066;28;20733;-85
2021/12/15 05:36:58;;;;;;;4.53;3.58;;;;;;;;;;5074909;28;20246;-86
2021/12/15 05:39:24;;;;;;;4.15;3.75;;;;;;;;;;5073550;28;20522;-85
2021/12/15 05:41:51;;;;;;;5.35;3.72;;;;;;;;;;5075028;28;20253;-85
2021/12/15 05:44:17;;;;;;;5.35;3.58;;;;;;;;;;5075216;28;20188;-85
2021/12/15 05:46:44;;;;;;;4.38;3.35;;;;;;;;;;5075339;28;20177;-85
2021/12/15 05:49:10;;;;;;;3.78;3.38;;;;;;;;;;5076289;28;20179;-84
2021/12/15 05:51:37;;;;;;;11.02;3.97;;;;;;;;;;5078523;28;20233;-84
2021/12/15 05:54:04;;;;;;;4.05;3.03;;;;;;;;;;5076687;28;20542;-84
2021/12/15 05:56:30;;;;;;;6.13;3.58;;;;;;;;;;5073826;28;20311;-85
2021/12/15 05:58:58;;;;;;;6.70;3.93;;;;;;;;;;5074785;28;20632;-83
2021/12/15 06:01:27;;;;;;;5.05;4.20;;;;;;;;;;5074674;28;20438;-83
2021/12/15 06:03:53;;;;;;;5.28;4.68;;;;;;;;;;5078887;28;20173;-85
2021/12/15 06:06:19;;;;;;;5.90;4.00;;;;;;;;;;5076725;28;20207;-86
2021/12/15 06:08:45;;;;;;;6.57;4.22;;;;;;;;;;5075346;28;20620;-84
2021/12/15 06:11:14;;;;;;;6.20;4.60;;;;;;;;;;5075001;28;20220;-84
2021/12/15 06:13:40;;;;;;;4.20;3.80;;;;;;;;;;5073127;28;20444;-84
2021/12/15 06:16:07;;;;;;;4.15;3.75;;;;;;;;;;5072972;28;20645;-85
2021/12/15 06:18:33;;;;;;;7.82;4.22;;;;;;;;;;5074409;28;20195;-85
2021/12/15 06:20:59;;;;;;;6.43;4.05;;;;;;;;;;5074136;28;20274;-83
2021/12/15 06:23:27;;;;;;;6.22;4.55;;;;;;;;;;5074988;28;20165;-83
2021/12/15 06:25:56;;;;;;;6.07;3.97;;;;;;;;;;5073998;28;20177;-84
2021/12/15 06:28:22;;;;;;;4.90;4.40;;;;;;;;;;5074666;28;20204;-86
2021/12/15 06:30:49;;;;;;;8.02;4.22;;;;;;;;;;5074562;28;20235;-85
2021/12/15 06:33:15;;;;;;;5.15;4.65;;;;;;;;;;5074004;28;20177;-84
2021/12/15 06:35:48;;;;;;;5.20;4.38;;;;;;;;;;5074057;28;20523;-85
2021/12/15 06:38:15;;;;;;;8.65;4.90;;;;;;;;;;5073975;28;20188;-84
2021/12/15 06:40:41;;;;;;;7.05;5.10;;;;;;;;;;5073601;28;20202;-84
2021/12/15 06:43:07;;;;;;;5.72;4.35;;;;;;;;;;5064235;28;20176;-85
2021/12/15 06:45:39;;;;;;;9.30;4.38;;;;;;;;;;5072832;28;20212;-84
2021/12/15 06:59:03;;;;;;;4.97;3.80;;;;;;;;;;5074463;28;20211;-85
2021/12/15 07:01:29;;;;;;;5.93;4.00;;;;;;;;;;5055522;28;20228;-85
2021/12/15 07:03:55;;;;;;;4.97;4.47;;;;;;;;;;5072140;28;20674;-86
2021/12/15 07:06:22;;;;;;;10.38;4.40;;;;;;;;;;5074218;28;20752;-87
2021/12/15 07:08:48;;;;;;;7.07;4.70;;;;;;;;;;5072975;28;20309;-86
2021/12/15 07:11:14;;;;;;;5.63;4.45;;;;;;;;;;5055489;28;20200;-84
2021/12/15 07:13:40;;;;;;;7.03;3.95;;;;;;;;;;5073430;28;20597;-87
2021/12/15 07:16:08;;;;;;;6.25;3.70;;;;;;;;;;5073321;28;20169;-86
2021/12/15 07:18:41;;;;;;;7.28;3.60;;;;;;;;;;5072072;28;20181;-86
2021/12/15 07:21:15;;;;;;;5.80;4.32;;;;;;;;;;5073200;28;20195;-87
2021/12/15 07:23:41;;;;;;;4.15;3.58;;;;;;;;;;5073574;28;20159;-87
2021/12/15 07:26:07;;;;;;;7.03;4.27;;;;;;;;;;5073260;28;20172;-86
2021/12/15 07:28:33;;;;;;;4.60;4.00;;;;;;;;;;5073535;28;20758;-85
2021/12/15 07:31:00;;;;;;;4.30;3.60;;;;;;;;;;5073492;28;20220;-86
2021/12/15 07:33:27;;;;;;;4.38;3.97;;;;;;;;;;5073259;28;20521;-85
2021/12/15 07:35:53;;;;;;;4.78;3.90;;;;;;;;;;5073348;28;20577;-87
2021/12/15 07:38:19;;;;;;;4.47;3.50;;;;;;;;;;5073869;28;20201;-84
2021/12/15 07:40:45;;;;;;;4.22;3.72;;;;;;;;;;5076766;28;20203;-87
2021/12/15 07:43:18;;;;;;;6.32;4.80;;;;;;;;;;5077463;28;20606;-85
2021/12/15 07:45:51;;;;;;;6.50;4.97;;;;;;;;;;5077415;28;20157;-85
2021/12/15 07:48:19;;;;;;;5.57;4.75;;;;;;;;;;5079130;28;20175;-83
2021/12/15 07:50:46;;;;;;;4.85;3.78;;;;;;;;;;5077471;28;20197;-85
2021/12/15 07:53:13;;;;;;;5.60;4.70;;;;;;;;;;5078551;28;20195;-86
2021/12/15 07:55:39;;;;;;;5.03;3.40;;;;;;;;;;5077190;28;20204;-83
2021/12/15 07:58:06;;;;;;;5.28;4.30;;;;;;;;;;5076629;28;20291;-85
2021/12/15 08:00:32;;;;;;;5.85;4.85;;;;;;;;;;5075179;28;20590;-84
2021/12/15 08:02:58;;;;;;;5.37;4.30;;;;;;;;;;5076643;28;20211;-82
2021/12/15 08:05:24;;;;;;;5.30;3.65;;;;;;;;;;5076681;28;20410;-85
2021/12/15 08:07:50;;;;;;;6.90;4.55;;;;;;;;;;5076527;28;20180;-85
2021/12/15 08:10:17;;;;;;;4.38;3.97;;;;;;;;;;5076223;28;20206;-87
2021/12/15 08:12:44;;;;;;;5.07;4.43;;;;;;;;;;5076464;28;20537;-85
2021/12/15 08:15:11;;;;;;;6.43;4.10;;;;;;;;;;5077060;28;20535;-86
2021/12/15 08:17:38;;;;;;;5.82;4.10;;;;;;;;;;5078630;28;20208;-85
2021/12/15 08:20:06;;;;;;;4.45;3.35;;;;;;;;;;5077980;28;20201;-84
2021/12/15 08:22:32;;;;;;;5.05;4.32;;;;;;;;;;5079221;28;20173;-86
2021/12/15 08:24:58;;;;;;;4.18;3.60;;;;;;;;;;5075345;28;20552;-84
2021/12/15 08:27:24;;;;;;;3.83;3.23;;;;;;;;;;5077557;28;20185;-84
2021/12/15 08:29:50;;;;;;;4.00;3.53;;;;;;;;;;5076179;28;20415;-84
2021/12/15 08:32:16;;;;;;;3.35;2.90;;;;;;;;;;5074841;28;20204;-86
2021/12/15 08:34:42;;;;;;;3.45;2.85;;;;;;;;;;5074953;28;20181;-83
2021/12/15 08:37:13;;;;;;;9.95;3.55;;;;;;;;;;5076162;28;20210;-84
2021/12/15 08:39:39;;;;;;;3.47;3.17;;;;;;;;;;5076061;28;20153;-84
2021/12/15 08:42:05;;;;;;;4.40;3.20;;;;;;;;;;5076190;28;20205;-84
2021/12/15 08:44:31;;;;;;;5.63;3.20;;;;;;;;;;5058195;28;20672;-85
2021/12/15 08:46:57;;;;;;;3.25;2.95;;;;;;;;;;5075095;28;20549;-86
2021/12/15 08:49:23;;;;;;;4.45;2.50;;;;;;;;;;5057414;28;20648;-85
2021/12/15 08:51:50;;;;;;;2.93;2.73;;;;;;;;;;5074363;28;20227;-86
2021/12/15 08:54:18;;;;;;;3.80;2.90;;;;;;;;;;5075920;28;20416;-86
2021/12/15 08:56:55;;;;;;;4.03;3.45;;;;;;;;;;5077971;28;20672;-82
2021/12/15 08:59:21;;;;;;;2.90;2.60;;;;;;;;;;5076249;28;20207;-84
2021/12/15 09:01:47;;;;;;;4.03;3.05;;;;;;;;;;5056638;28;20209;-84
2021/12/15 09:04:14;;;;;;;3.47;3.17;;;;;;;;;;5073503;28;20187;-84
2021/12/15 09:07:05;;;;;;;4.07;3.15;;;;;;;;;;5074075;28;20588;-82
2021/12/15 09:09:33;;;;;;;3.50;2.67;;;;;;;;;;5056356;28;20272;-84
2021/12/15 09:11:59;;;;;;;4.95;2.92;;;;;;;;;;5073490;28;20222;-83
2021/12/15 09:14:25;;;;;;;3.67;2.92;;;;;;;;;;5056522;28;20624;-82
2021/12/15 09:16:52;;;;;;;3.22;3.03;;;;;;;;;;5073016;28;20208;-83
2021/12/15 09:19:18;;;;;;;3.83;3.20;;;;;;;;;;5072885;28;20188;-83
2021/12/15 09:21:46;;;;;;;2.95;2.65;;;;;;;;;;5073053;28;20197;-84
2021/12/15 09:24:13;;;;;;;3.38;3.00;;;;;;;;;;5073341;28;20180;-84
2021/12/15 09:26:39;;;;;;;2.70;2.50;;;;;;;;;;5073119;28;20195;-85
2021/12/15 09:29:06;;;;;;;6.25;3.05;;;;;;;;;;5072911;28;20226;-84
2021/12/15 09:31:33;;;;;;;3.35;3.00;;;;;;;;;;5074478;28;20231;-82
2021/12/15 09:33:59;;;;;;;2.88;2.58;;;;;;;;;;5075768;28;20173;-85
2021/12/15 09:36:27;;;;;;;7.22;3.40;;;;;;;;;;5074751;28;20181;-83
2021/12/15 09:38:59;;;;;;;5.05;3.90;;;;;;;;;;5073506;28;20202;-83
2021/12/15 09:41:25;;;;;;;5.13;4.00;;;;;;;;;;5074379;28;20314;-85
2021/12/15 09:43:54;;;;;;;5.05;3.90;;;;;;;;;;5075000;28;20189;-86
2021/12/15 09:57:36;;;;;;;5.25;3.85;;;;;;;;;;5074585;28;20238;-85
2021/12/15 10:02:58;;;;;;;6.57;4.55;;;;;;;;;;5074242;28;20172;-85
2021/12/15 10:11:31;;;;;;;6.90;5.30;;;;;;;;;;5074430;28;20226;-84
2021/12/15 10:19:40;;;;;;;5.22;3.95;;;;;;;;;;5074208;28;20180;-86
2021/12/15 10:22:09;;;;;;;5.47;3.40;;;;;;;;;;5072708;28;20193;-84
2021/12/15 10:24:45;;;;;;;4.88;4.10;;;;;;;;;;5072726;28;20215;-85
2021/12/15 10:27:11;;;;;;;4.22;3.80;;;;;;;;;;5074216;28;20167;-83
2021/12/15 10:29:55;;;;;;;6.65;3.58;;;;;;;;;;5055904;28;20275;-86
2021/12/15 10:32:27;;;;;;;4.30;3.40;;;;;;;;;;5072705;28;20296;-85
2021/12/15 10:35:00;;;;;;;3.35;3.05;;;;;;;;;;5073977;28;20168;-85
2021/12/15 10:37:28;;;;;;;3.95;3.03;;;;;;;;;;5074025;28;20609;-84
2021/12/15 10:40:12;;;;;;;3.90;2.85;;;;;;;;;;5073526;28;20179;-85
2021/12/15 10:42:38;;;;;;;4.78;2.92;;;;;;;;;;5073985;28;20172;-85
2021/12/15 10:45:05;;;;;;;4.13;3.25;;;;;;;;;;5072796;28;20181;-85
2021/12/15 10:47:31;;;;;;;6.38;2.92;;;;;;;;;;5074397;28;20180;-85
2021/12/15 10:49:57;;;;;;;3.80;2.80;;;;;;;;;;5056930;28;20192;-85
2021/12/15 10:52:23;;;;;;;3.50;2.90;;;;;;;;;;5075272;28;20607;-85
2021/12/15 10:54:51;;;;;;;3.30;3.00;;;;;;;;;;5073822;28;20415;-84
2021/12/15 10:57:19;;;;;;;5.43;3.10;;;;;;;;;;5072408;28;20462;-84
2021/12/15 10:59:46;;;;;;;3.45;3.15;;;;;;;;;;5073456;28;20184;-85
2021/12/15 11:02:14;;;;;;;4.82;3.03;;;;;;;;;;5073496;28;20196;-85
2021/12/15 11:04:40;;;;;;;6.00;3.58;;;;;;;;;;5072686;28;20201;-86
2021/12/15 11:07:06;;;;;;;3.63;3.33;;;;;;;;;;5073635;28;20184;-86
2021/12/15 11:09:38;;;;;;;4.80;3.30;;;;;;;;;;5073297;28;20185;-85
2021/12/15 11:12:07;;;;;;;3.55;3.25;;;;;;;;;;5073095;28;20446;-85
2021/12/15 11:14:35;;;;;;;3.72;3.42;;;;;;;;;;5073501;28;20210;-86
2021/12/15 11:17:05;;;;;;;4.13;3.55;;;;;;;;;;5073301;28;20279;-86
2021/12/15 11:19:40;;;;;;;4.47;3.55;;;;;;;;;;5073217;28;20177;-85
2021/12/15 11:22:26;;;;;;;6.05;3.50;;;;;;;;;;5073371;28;20188;-86
2021/12/15 11:24:52;;;;;;;4.00;2.80;;;;;;;;;;5041511;28;20206;-85
2021/12/15 11:27:20;;;;;;;3.65;3.05;;;;;;;;;;5072605;28;20580;-84
2021/12/15 11:29:46;;;;;;;4.22;3.03;;;;;;;;;;5078396;28;20306;-86
2021/12/15 11:32:31;;;;;;;3.28;2.97;;;;;;;;;;5074063;28;20653;-85
2021/12/15 11:35:01;;;;;;;4.28;3.05;;;;;;;;;;5074962;28;20177;-84
2021/12/15 11:37:47;;;;;;;5.95;2.95;;;;;;;;;;5074362;28;20197;-85
2021/12/15 11:40:14;;;;;;;4.65;2.45;;;;;;;;;;5073368;28;20272;-85
2021/12/15 11:42:41;;;;;;;4.40;2.67;;;;;;;;;;5075260;28;20180;-87
2021/12/15 11:45:08;;;;;;;2.95;2.65;;;;;;;;;;5073935;28;20183;-86
2021/12/15 11:47:35;;;;;;;3.70;2.72;;;;;;;;;;5077143;28;20177;-85
2021/12/15 11:50:11;;;;;;;3.47;3.17;;;;;;;;;;5079419;28;20252;-84
2021/12/15 11:52:39;;;;;;;3.13;2.83;;;;;;;;;;5074606;28;20202;-86
2021/12/15 11:55:07;;;;;;;3.35;2.88;;;;;;;;;;5073856;28;20709;-85
2021/12/15 11:57:34;;;;;;;5.10;3.20;;;;;;;;;;5072976;28;20546;-85
2021/12/15 12:00:09;;;;;;;4.43;3.65;;;;;;;;;;5072238;28;20642;-85
2021/12/15 12:02:39;;;;;;;4.85;2.75;;;;;;;;;;5072372;28;20173;-85
2021/12/15 12:05:07;;;;;;;2.30;2.10;;;;;;;;;;5073586;28;20173;-85
2021/12/15 12:07:37;;;;;;;4.45;2.25;;;;;;;;;;5072075;28;20558;-85
2021/12/15 12:10:06;;;;;;;5.35;2.80;;;;;;;;;;5073375;28;20183;-85
2021/12/15 12:12:47;;;;;;;3.47;3.00;;;;;;;;;;5074583;28;20266;-85
2021/12/15 12:15:14;;;;;;;4.85;2.95;;;;;;;;;;5075387;28;20169;-84
2021/12/15 12:17:42;;;;;;;3.67;2.95;;;;;;;;;;5076417;28;20212;-86
2021/12/15 12:20:16;;;;;;;6.03;2.53;;;;;;;;;;5074954;28;20206;-84
2021/12/15 12:22:45;;;;;;;7.22;2.83;;;;;;;;;;5075640;28;20176;-84
2021/12/15 12:25:13;;;;;;;4.63;3.22;;;;;;;;;;5078182;28;20366;-86
2021/12/15 12:27:40;;;;;;;5.07;2.72;;;;;;;;;;5079266;28;20169;-85
2021/12/15 12:30:11;;;;;;;4.07;3.03;;;;;;;;;;5079070;28;20179;-84
2021/12/15 12:32:37;;;;;;;3.33;2.33;;;;;;;;;;5077165;28;20184;-85
2021/12/15 12:35:05;;;;;;;3.80;3.05;;;;;;;;;;5078400;28;20169;-85
2021/12/15 12:37:31;;;;;;;3.05;2.72;;;;;;;;;;5077128;28;20626;-84
2021/12/15 12:40:04;;;;;;;3.55;2.70;;;;;;;;;;5079763;28;20248;-85
2021/12/15 12:42:35;;;;;;;4.47;3.10;;;;;;;;;;5078150;28;20157;-85
2021/12/15 12:45:10;;;;;;;4.07;2.83;;;;;;;;;;5077756;28;20169;-86
2021/12/15 12:47:42;;;;;;;4.55;3.17;;;;;;;;;;5076312;28;20213;-85
2021/12/15 12:50:49;;;;;;;4.90;3.35;;;;;;;;;;5075978;28;20171;-84
2021/12/15 13:01:11;;;;;;;7.05;4.03;;;;;;;;;;5077133;28;20191;-86
2021/12/15 13:03:40;;;;;;;7.75;4.90;;;;;;;;;;5079452;28;20176;-85
2021/12/15 13:06:07;;;;;;;9.30;4.40;;;;;;;;;;5079656;28;20517;-86
2021/12/15 13:08:43;;;;;;;5.85;5.18;;;;;;;;;;5076829;28;20588;-84
2021/12/15 13:11:15;;;;;;;7.03;4.15;;;;;;;;;;5074721;28;20204;-84
2021/12/15 13:14:01;;;;;;;6.10;4.15;;;;;;;;;;5076507;28;20173;-85
2021/12/15 13:16:39;;;;;;;6.57;4.63;;;;;;;;;;5079770;28;20208;-85
2021/12/15 13:19:13;;;;;;;5.90;4.90;;;;;;;;;;5082194;28;20244;-84
2021/12/15 13:21:47;;;;;;;6.88;5.10;;;;;;;;;;5078853;28;20201;-86
2021/12/15 13:28:40;;;;;;;8.10;5.20;;;;;;;;;;5078260;28;20618;-84
2021/12/15 13:30:02;;;;;;;6.78;5.00;;;;;;;;;;5076782;28;20188;-87
2021/12/15 13:32:32;;;;;;;6.60;5.30;;;;;;;;;;5076579;28;20173;-86
2021/12/15 13:34:58;;;;;;;10.18;5.82;;;;;;;;;;5077166;28;20200;-85
2021/12/15 13:37:43;;;;;;;7.88;6.35;;;;;;;;;;5078005;28;20211;-84
2021/12/15 13:40:11;;;;;;;11.98;6.30;;;;;;;;;;5077826;28;20168;-84
2021/12/15 13:42:51;;;;;;;8.93;6.68;;;;;;;;;;5061027;28;20184;-85
2021/12/15 13:45:29;;;;;;;6.70;5.60;;;;;;;;;;5079242;28;20153;-85
2021/12/15 13:47:55;;;;;;;10.45;6.65;;;;;;;;;;5076612;28;20206;-86
2021/12/15 13:50:23;;;;;;;7.05;5.75;;;;;;;;;;5076329;28;20242;-86
2021/12/15 13:52:54;;;;;;;10.48;7.32;;;;;;;;;;5075977;28;20589;-86
2021/12/15 13:55:30;;;;;;;11.55;7.93;;;;;;;;;;5076501;28;20165;-85
2021/12/15 13:58:03;;;;;;;8.75;6.25;;;;;;;;;;5076570;28;20185;-85
2021/12/15 14:00:35;;;;;;;11.85;7.60;;;;;;;;;;5075130;28;20208;-86
2021/12/15 14:03:19;;;;;;;11.43;7.57;;;;;;;;;;5075495;28;20234;-84
2021/12/15 14:05:57;;;;;;;11.82;7.70;;;;;;;;;;5075587;28;20177;-85
2021/12/15 14:08:37;;;;;;;16.20;8.02;;;;;;;;;;5073726;28;20679;-86
2021/12/15 14:11:07;;;;;;;10.48;8.00;;;;;;;;;;5074946;28;20223;-86
2021/12/15 14:13:52;;;;;;;10.07;7.88;;;;;;;;;;5075570;28;20687;-86
2021/12/15 14:16:48;;;;;;;8.63;6.95;;;;;;;;;;5074164;28;20200;-85
2021/12/15 14:19:29;;;;;;;17.67;9.07;;;;;;;;;;5066990;28;20256;-84
2021/12/15 14:22:04;;;;;;;13.52;9.07;;;;;;;;;;5074312;28;20214;-85
2021/12/15 14:24:30;;;;;;;11.38;8.95;;;;;;;;;;5075304;28;20176;-85
2021/12/15 14:26:56;;;;;;;12.40;9.25;;;;;;;;;;5075523;28;20173;-84
2021/12/15 14:29:24;;;;;;;10.70;8.80;;;;;;;;;;5074468;28;20181;-86
2021/12/15 14:31:51;;;;;;;13.95;10.07;;;;;;;;;;5075206;28;20208;-85
2021/12/15 14:34:19;;;;;;;12.20;9.32;;;;;;;;;;5074413;28;20180;-85
2021/12/15 14:36:47;;;;;;;11.07;8.88;;;;;;;;;;5074307;28;20201;-85
2021/12/15 14:39:18;;;;;;;10.88;8.55;;;;;;;;;;5075979;28;20173;-85
2021/12/15 14:41:46;;;;;;;15.25;10.25;;;;;;;;;;5076969;28;20192;-83
2021/12/15 14:44:13;;;;;;;12.10;8.85;;;;;;;;;;5073215;28;20191;-82
2021/12/15 14:46:45;;;;;;;18.42;9.93;;;;;;;;;;5074072;28;20173;-83
2021/12/15 14:49:13;;;;;;;16.92;11.23;;;;;;;;;;5073598;28;20663;-80
2021/12/15 14:51:41;;;;;;;12.68;10.50;;;;;;;;;;5073658;28;20196;-83
2021/12/15 14:54:07;;;;;;;11.73;10.43;;;;;;;;;;5073828;28;20294;-83
2021/12/15 14:56:52;;;;;;;13.57;10.57;;;;;;;;;;5073641;28;20223;-82
2021/12/15 14:59:20;;;;;;;13.55;10.98;;;;;;;;;;5073294;28;20175;-83
2021/12/15 15:01:48;;;;;;;14.07;11.13;;;;;;;;;;5073211;28;20184;-81
2021/12/15 15:04:15;;;;;;;12.63;9.70;;;;;;;;;;5072632;28;20543;-83
2021/12/15 15:06:42;;;;;;;13.10;11.18;;;;;;;;;;5073577;28;20561;-86
2021/12/15 15:09:19;;;;;;;13.15;10.77;;;;;;;;;;5073995;28;20537;-85
2021/12/15 15:11:57;;;;;;;13.95;11.93;;;;;;;;;;5078200;28;20212;-83
2021/12/15 15:14:46;;;;;;;14.75;10.20;;;;;;;;;;5073421;28;20206;-85
2021/12/15 15:17:26;;;;;;;13.90;11.65;;;;;;;;;;5068004;28;20239;-85
2021/12/15 15:20:11;;;;;;;16.08;12.57;;;;;;;;;;5073113;28;20149;-83
2021/12/15 15:22:37;;;;;;;17.23;12.65;;;;;;;;;;5073255;28;20230;-85
2021/12/15 15:25:05;;;;;;;13.27;11.80;;;;;;;;;;5072161;28;20188;-85
2021/12/15 15:27:32;;;;;;;13.50;11.60;;;;;;;;;;5072991;28;20187;-84
2021/12/15 15:30:02;;;;;;;15.63;12.10;;;;;;;;;;5073502;28;20230;-85
2021/12/15 15:32:34;;;;;;;15.85;12.30;;;;;;;;;;5074345;28;20175;-83
2021/12/15 15:35:08;;;;;;;12.10;10.80;;;;;;;;;;5077450;28;20243;-82
2021/12/15 15:37:35;;;;;;;12.85;11.35;;;;;;;;;;5080813;28;20242;-84
2021/12/15 15:40:05;;;;;;;14.98;12.60;;;;;;;;;;5077500;28;20185;-84
2021/12/15 15:42:31;;;;;;;15.48;10.93;;;;;;;;;;5076038;28;20169;-84
2021/12/15 15:44:57;;;;;;;13.70;11.65;;;;;;;;;;5074420;28;20204;-86
2021/12/15 15:47:24;;;;;;;13.80;11.60;;;;;;;;;;5074095;28;20578;-83
2021/12/15 15:49:58;;;;;;;20.65;12.30;;;;;;;;;;5075133;28;20173;-84
2021/12/15 15:52:25;;;;;;;13.57;11.10;;;;;;;;;;5076113;28;20176;-85
2021/12/15 15:54:52;;;;;;;12.82;10.25;;;;;;;;;;5074942;28;20662;-84
2021/12/15 15:57:22;;;;;;;12.80;10.95;;;;;;;;;;5073061;28;20250;-87
2021/12/15 15:59:48;;;;;;;13.98;11.02;;;;;;;;;;5073927;28;20208;-86
2021/12/15 16:02:15;;;;;;;15.50;12.40;;;;;;;;;;5063622;28;20211;-87
2021/12/15 16:04:41;;;;;;;14.65;12.05;;;;;;;;;;5076467;28;20235;-87
2021/12/15 16:07:07;;;;;;;14.30;12.80;;;;;;;;;;5077500;28;20180;-87